Airport Name : Brize Norton

Other Name : Brize Norton

ICAO : EGVN

IATA : BZZ

FAA :

Latitude : 51.749964

Longitude : -1.583617

Country : United Kingdom

Local Date and Time : 18 Jul 2024 18:26

 

TAF (Terminal Aerodrome Forecast)

TAF EGVN 181646Z 1818/1918 19007KT 9999 FEW048 PROB30 1902/1906 7000 HZ

 

METAR (METeorological Aerodrome Report)

EGVN 181720Z 16006KT CAVOK 26/13 Q1018 NOSIG

EGVN 181650Z 19007KT CAVOK 26/13 Q1018 NOSIG RMK BLU BLU

EGVN 181620Z 19008KT CAVOK 27/12 Q1018 NOSIG RMK BLU BLU

EGVN 181550Z 18007KT CAVOK 26/13 Q1018 NOSIG RMK BLU BLU

EGVN 181520Z 17006KT CAVOK 26/13 Q1018 NOSIG RMK BLU BLU

EGVN 181450Z 18008KT 9999 FEW049 27/13 Q1019 NOSIG RMK BLU BLU

EGVN 181420Z 17005KT 9999 FEW048 SCT110 25/13 Q1019 NOSIG RMK BLU BLU

EGVN 181350Z 17006KT 9999 FEW047 25/14 Q1019 NOSIG RMK BLU BLU